sensor_id;sensor_type;location;lat;lon;timestamp;P1;durP1;ratioP1;P2;durP2;ratioP2
11319;SDS011;5715;48.234;14.320;2023-08-21T00:02:04;9.23;;;3.30;;
11319;SDS011;5715;48.234;14.320;2023-08-21T00:04:52;4.85;;;3.85;;
11319;SDS011;5715;48.234;14.320;2023-08-21T00:07:40;5.47;;;4.30;;
11319;SDS011;5715;48.234;14.320;2023-08-21T00:10:29;4.75;;;4.35;;
11319;SDS011;5715;48.234;14.320;2023-08-21T00:13:17;5.70;;;4.35;;
11319;SDS011;5715;48.234;14.320;2023-08-21T00:16:05;4.55;;;4.15;;
11319;SDS011;5715;48.234;14.320;2023-08-21T00:18:53;4.63;;;4.30;;
11319;SDS011;5715;48.234;14.320;2023-08-21T00:21:41;7.10;;;4.53;;
11319;SDS011;5715;48.234;14.320;2023-08-21T00:24:29;4.57;;;4.18;;
11319;SDS011;5715;48.234;14.320;2023-08-21T00:27:16;4.85;;;4.50;;
11319;SDS011;5715;48.234;14.320;2023-08-21T00:30:05;5.05;;;4.65;;
11319;SDS011;5715;48.234;14.320;2023-08-21T00:32:53;5.32;;;4.88;;
11319;SDS011;5715;48.234;14.320;2023-08-21T00:35:41;5.07;;;4.68;;
11319;SDS011;5715;48.234;14.320;2023-08-21T00:38:29;5.05;;;4.65;;
11319;SDS011;5715;48.234;14.320;2023-08-21T00:41:17;5.47;;;5.07;;
11319;SDS011;5715;48.234;14.320;2023-08-21T00:44:04;6.43;;;4.22;;
11319;SDS011;5715;48.234;14.320;2023-08-21T00:46:52;5.80;;;5.30;;
11319;SDS011;5715;48.234;14.320;2023-08-21T00:49:40;5.47;;;4.97;;
11319;SDS011;5715;48.234;14.320;2023-08-21T00:52:28;5.40;;;4.90;;
11319;SDS011;5715;48.234;14.320;2023-08-21T00:55:17;5.28;;;4.78;;
11319;SDS011;5715;48.234;14.320;2023-08-21T00:58:05;5.70;;;5.28;;
11319;SDS011;5715;48.234;14.320;2023-08-21T01:00:52;10.32;;;4.55;;
11319;SDS011;5715;48.234;14.320;2023-08-21T01:03:41;5.10;;;4.60;;
11319;SDS011;5715;48.234;14.320;2023-08-21T01:06:29;4.65;;;4.35;;
11319;SDS011;5715;48.234;14.320;2023-08-21T01:15:54;5.28;;;4.88;;
11319;SDS011;5715;48.234;14.320;2023-08-21T01:18:44;5.32;;;4.88;;
11319;SDS011;5715;48.234;14.320;2023-08-21T01:21:35;5.55;;;5.05;;
11319;SDS011;5715;48.234;14.320;2023-08-21T01:24:23;5.18;;;4.75;;
11319;SDS011;5715;48.234;14.320;2023-08-21T01:27:10;5.88;;;5.38;;
11319;SDS011;5715;48.234;14.320;2023-08-21T01:30:01;4.70;;;4.30;;
11319;SDS011;5715;48.234;14.320;2023-08-21T01:32:59;4.85;;;4.45;;
11319;SDS011;5715;48.234;14.320;2023-08-21T01:35:58;4.70;;;4.28;;
11319;SDS011;5715;48.234;14.320;2023-08-21T01:38:50;5.03;;;4.70;;
11319;SDS011;5715;48.234;14.320;2023-08-21T01:41:39;5.10;;;4.75;;
11319;SDS011;5715;48.234;14.320;2023-08-21T01:44:28;4.60;;;4.25;;
11319;SDS011;5715;48.234;14.320;2023-08-21T01:47:16;6.07;;;5.47;;
11319;SDS011;5715;48.234;14.320;2023-08-21T01:50:04;5.40;;;5.00;;
11319;SDS011;5715;48.234;14.320;2023-08-21T01:52:52;5.63;;;5.22;;
11319;SDS011;5715;48.234;14.320;2023-08-21T01:55:40;6.18;;;5.68;;
11319;SDS011;5715;48.234;14.320;2023-08-21T01:58:27;5.43;;;5.03;;
11319;SDS011;5715;48.234;14.320;2023-08-21T02:01:15;5.47;;;4.97;;
11319;SDS011;5715;48.234;14.320;2023-08-21T02:04:04;4.90;;;4.53;;
11319;SDS011;5715;48.234;14.320;2023-08-21T02:06:52;4.72;;;4.43;;
11319;SDS011;5715;48.234;14.320;2023-08-21T02:09:39;5.22;;;4.82;;
11319;SDS011;5715;48.234;14.320;2023-08-21T02:12:27;4.43;;;4.13;;
11319;SDS011;5715;48.234;14.320;2023-08-21T02:15:15;5.70;;;5.20;;
11319;SDS011;5715;48.234;14.320;2023-08-21T02:18:02;4.78;;;4.43;;
11319;SDS011;5715;48.234;14.320;2023-08-21T02:20:50;5.20;;;4.80;;
11319;SDS011;5715;48.234;14.320;2023-08-21T02:23:38;7.43;;;5.38;;
11319;SDS011;5715;48.234;14.320;2023-08-21T02:26:25;6.40;;;5.90;;
11319;SDS011;5715;48.234;14.320;2023-08-21T02:29:13;6.15;;;5.65;;
11319;SDS011;5715;48.234;14.320;2023-08-21T02:32:01;4.63;;;4.22;;
11319;SDS011;5715;48.234;14.320;2023-08-21T02:34:48;4.88;;;4.47;;
11319;SDS011;5715;48.234;14.320;2023-08-21T02:37:36;5.28;;;4.63;;
11319;SDS011;5715;48.234;14.320;2023-08-21T02:40:25;4.80;;;4.50;;
11319;SDS011;5715;48.234;14.320;2023-08-21T02:43:13;5.28;;;4.78;;
11319;SDS011;5715;48.234;14.320;2023-08-21T02:46:01;4.63;;;4.30;;
11319;SDS011;5715;48.234;14.320;2023-08-21T02:48:49;6.80;;;6.22;;
11319;SDS011;5715;48.234;14.320;2023-08-21T02:51:36;4.82;;;4.50;;
11319;SDS011;5715;48.234;14.320;2023-08-21T02:54:24;5.20;;;4.70;;
11319;SDS011;5715;48.234;14.320;2023-08-21T02:57:12;8.88;;;5.22;;
11319;SDS011;5715;48.234;14.320;2023-08-21T02:59:59;4.85;;;4.50;;
11319;SDS011;5715;48.234;14.320;2023-08-21T03:02:47;4.57;;;4.20;;
11319;SDS011;5715;48.234;14.320;2023-08-21T03:05:35;4.93;;;4.47;;
11319;SDS011;5715;48.234;14.320;2023-08-21T03:08:23;4.57;;;4.22;;
11319;SDS011;5715;48.234;14.320;2023-08-21T03:11:10;5.45;;;4.95;;
11319;SDS011;5715;48.234;14.320;2023-08-21T03:13:58;4.28;;;3.92;;
11319;SDS011;5715;48.234;14.320;2023-08-21T03:16:45;3.97;;;3.63;;
11319;SDS011;5715;48.234;14.320;2023-08-21T03:19:33;4.38;;;3.97;;
11319;SDS011;5715;48.234;14.320;2023-08-21T03:22:21;5.68;;;5.13;;
11319;SDS011;5715;48.234;14.320;2023-08-21T03:25:08;5.28;;;4.10;;
11319;SDS011;5715;48.234;14.320;2023-08-21T03:27:56;5.57;;;5.07;;
11319;SDS011;5715;48.234;14.320;2023-08-21T03:30:44;4.97;;;4.57;;
11319;SDS011;5715;48.234;14.320;2023-08-21T03:33:31;5.53;;;4.53;;
11319;SDS011;5715;48.234;14.320;2023-08-21T03:36:20;4.57;;;4.28;;
11319;SDS011;5715;48.234;14.320;2023-08-21T03:39:10;4.53;;;4.13;;
11319;SDS011;5715;48.234;14.320;2023-08-21T03:41:57;4.60;;;4.30;;
11319;SDS011;5715;48.234;14.320;2023-08-21T03:44:45;5.53;;;4.97;;
11319;SDS011;5715;48.234;14.320;2023-08-21T03:47:35;4.70;;;4.30;;
11319;SDS011;5715;48.234;14.320;2023-08-21T03:50:22;6.43;;;5.82;;
11319;SDS011;5715;48.234;14.320;2023-08-21T03:53:10;5.13;;;4.63;;
11319;SDS011;5715;48.234;14.320;2023-08-21T03:55:57;5.68;;;5.07;;
11319;SDS011;5715;48.234;14.320;2023-08-21T03:58:45;4.47;;;4.07;;
11319;SDS011;5715;48.234;14.320;2023-08-21T04:01:34;6.00;;;5.18;;
11319;SDS011;5715;48.234;14.320;2023-08-21T04:04:22;5.03;;;4.32;;
11319;SDS011;5715;48.234;14.320;2023-08-21T04:07:11;4.60;;;4.20;;
11319;SDS011;5715;48.234;14.320;2023-08-21T04:09:59;4.53;;;4.13;;
11319;SDS011;5715;48.234;14.320;2023-08-21T04:12:47;5.40;;;4.97;;
11319;SDS011;5715;48.234;14.320;2023-08-21T04:15:34;4.72;;;4.30;;
11319;SDS011;5715;48.234;14.320;2023-08-21T04:18:22;4.47;;;3.97;;
11319;SDS011;5715;48.234;14.320;2023-08-21T04:21:27;5.70;;;4.07;;
11319;SDS011;5715;48.234;14.320;2023-08-21T04:24:14;4.85;;;4.45;;
11319;SDS011;5715;48.234;14.320;2023-08-21T04:27:02;5.57;;;4.68;;
11319;SDS011;5715;48.234;14.320;2023-08-21T04:29:49;4.15;;;3.75;;
11319;SDS011;5715;48.234;14.320;2023-08-21T04:32:37;5.13;;;4.72;;
11319;SDS011;5715;48.234;14.320;2023-08-21T04:35:25;5.07;;;4.60;;
11319;SDS011;5715;48.234;14.320;2023-08-21T04:38:13;4.70;;;4.28;;
11319;SDS011;5715;48.234;14.320;2023-08-21T04:41:07;4.97;;;4.57;;
11319;SDS011;5715;48.234;14.320;2023-08-21T04:43:55;5.03;;;4.63;;
11319;SDS011;5715;48.234;14.320;2023-08-21T04:46:43;5.47;;;4.97;;
11319;SDS011;5715;48.234;14.320;2023-08-21T04:49:30;4.75;;;4.32;;
11319;SDS011;5715;48.234;14.320;2023-08-21T04:52:18;5.85;;;4.95;;
11319;SDS011;5715;48.234;14.320;2023-08-21T04:55:07;7.65;;;6.90;;
11319;SDS011;5715;48.234;14.320;2023-08-21T04:57:55;5.78;;;5.22;;
11319;SDS011;5715;48.234;14.320;2023-08-21T05:00:44;7.85;;;3.60;;
11319;SDS011;5715;48.234;14.320;2023-08-21T05:03:33;4.05;;;3.65;;
11319;SDS011;5715;48.234;14.320;2023-08-21T05:06:20;4.28;;;3.88;;
11319;SDS011;5715;48.234;14.320;2023-08-21T05:09:08;6.03;;;5.43;;
11319;SDS011;5715;48.234;14.320;2023-08-21T05:11:55;6.60;;;5.40;;
11319;SDS011;5715;48.234;14.320;2023-08-21T05:14:43;5.88;;;5.30;;
11319;SDS011;5715;48.234;14.320;2023-08-21T05:17:30;5.18;;;4.57;;
11319;SDS011;5715;48.234;14.320;2023-08-21T05:20:18;9.60;;;4.75;;
11319;SDS011;5715;48.234;14.320;2023-08-21T05:23:06;5.93;;;4.63;;
11319;SDS011;5715;48.234;14.320;2023-08-21T05:25:53;7.50;;;5.50;;
11319;SDS011;5715;48.234;14.320;2023-08-21T05:28:41;16.40;;;5.63;;
11319;SDS011;5715;48.234;14.320;2023-08-21T05:31:29;6.43;;;5.78;;
11319;SDS011;5715;48.234;14.320;2023-08-21T05:34:17;7.55;;;5.45;;
11319;SDS011;5715;48.234;14.320;2023-08-21T05:37:04;6.05;;;5.45;;
11319;SDS011;5715;48.234;14.320;2023-08-21T05:39:52;7.57;;;5.68;;
11319;SDS011;5715;48.234;14.320;2023-08-21T05:42:40;6.93;;;6.22;;
11319;SDS011;5715;48.234;14.320;2023-08-21T05:45:27;7.95;;;7.15;;
11319;SDS011;5715;48.234;14.320;2023-08-21T05:48:17;8.27;;;7.53;;
11319;SDS011;5715;48.234;14.320;2023-08-21T05:51:04;8.90;;;6.80;;
11319;SDS011;5715;48.234;14.320;2023-08-21T05:53:52;8.25;;;7.00;;
11319;SDS011;5715;48.234;14.320;2023-08-21T05:56:39;7.45;;;6.38;;
11319;SDS011;5715;48.234;14.320;2023-08-21T05:59:29;8.48;;;6.00;;
11319;SDS011;5715;48.234;14.320;2023-08-21T06:02:18;6.65;;;6.03;;
11319;SDS011;5715;48.234;14.320;2023-08-21T06:05:06;8.43;;;5.75;;
11319;SDS011;5715;48.234;14.320;2023-08-21T06:07:53;5.82;;;4.43;;
11319;SDS011;5715;48.234;14.320;2023-08-21T06:10:41;5.45;;;4.40;;
11319;SDS011;5715;48.234;14.320;2023-08-21T06:13:29;7.72;;;4.65;;
11319;SDS011;5715;48.234;14.320;2023-08-21T06:16:17;5.88;;;4.95;;
11319;SDS011;5715;48.234;14.320;2023-08-21T06:19:04;6.18;;;5.55;;
11319;SDS011;5715;48.234;14.320;2023-08-21T06:21:52;5.53;;;4.13;;
11319;SDS011;5715;48.234;14.320;2023-08-21T06:24:41;8.00;;;5.63;;
11319;SDS011;5715;48.234;14.320;2023-08-21T06:27:29;7.63;;;5.72;;
11319;SDS011;5715;48.234;14.320;2023-08-21T06:30:24;5.07;;;4.57;;
11319;SDS011;5715;48.234;14.320;2023-08-21T06:33:14;6.40;;;5.65;;
11319;SDS011;5715;48.234;14.320;2023-08-21T06:36:01;11.63;;;5.65;;
11319;SDS011;5715;48.234;14.320;2023-08-21T06:38:49;6.25;;;4.82;;
11319;SDS011;5715;48.234;14.320;2023-08-21T06:41:36;6.72;;;5.63;;
11319;SDS011;5715;48.234;14.320;2023-08-21T06:44:24;4.95;;;4.55;;
11319;SDS011;5715;48.234;14.320;2023-08-21T06:47:12;5.70;;;5.20;;
11319;SDS011;5715;48.234;14.320;2023-08-21T06:49:59;6.13;;;5.55;;
11319;SDS011;5715;48.234;14.320;2023-08-21T06:52:47;6.50;;;5.85;;
11319;SDS011;5715;48.234;14.320;2023-08-21T06:55:34;6.72;;;6.10;;
11319;SDS011;5715;48.234;14.320;2023-08-21T06:58:22;6.47;;;5.88;;
11319;SDS011;5715;48.234;14.320;2023-08-21T07:01:10;7.05;;;5.90;;
11319;SDS011;5715;48.234;14.320;2023-08-21T07:03:57;5.53;;;5.13;;
11319;SDS011;5715;48.234;14.320;2023-08-21T07:06:45;7.30;;;5.45;;
11319;SDS011;5715;48.234;14.320;2023-08-21T07:09:33;5.70;;;5.10;;
11319;SDS011;5715;48.234;14.320;2023-08-21T07:12:21;6.40;;;5.78;;
11319;SDS011;5715;48.234;14.320;2023-08-21T07:15:09;8.32;;;5.07;;
11319;SDS011;5715;48.234;14.320;2023-08-21T07:17:57;5.60;;;5.00;;
11319;SDS011;5715;48.234;14.320;2023-08-21T07:20:45;5.70;;;5.20;;
11319;SDS011;5715;48.234;14.320;2023-08-21T07:23:32;4.55;;;4.15;;
11319;SDS011;5715;48.234;14.320;2023-08-21T07:26:20;5.28;;;3.97;;
11319;SDS011;5715;48.234;14.320;2023-08-21T07:29:08;4.22;;;3.83;;
11319;SDS011;5715;48.234;14.320;2023-08-21T07:31:56;5.65;;;4.97;;
11319;SDS011;5715;48.234;14.320;2023-08-21T07:34:43;4.40;;;4.00;;
11319;SDS011;5715;48.234;14.320;2023-08-21T07:37:31;9.77;;;4.90;;
11319;SDS011;5715;48.234;14.320;2023-08-21T07:40:18;5.88;;;4.35;;
11319;SDS011;5715;48.234;14.320;2023-08-21T07:43:06;4.72;;;4.22;;
11319;SDS011;5715;48.234;14.320;2023-08-21T07:45:55;11.88;;;4.90;;
11319;SDS011;5715;48.234;14.320;2023-08-21T07:48:42;9.02;;;5.00;;
11319;SDS011;5715;48.234;14.320;2023-08-21T07:51:31;15.38;;;4.60;;
11319;SDS011;5715;48.234;14.320;2023-08-21T07:54:18;5.82;;;5.03;;
11319;SDS011;5715;48.234;14.320;2023-08-21T07:57:06;5.88;;;5.32;;
11319;SDS011;5715;48.234;14.320;2023-08-21T07:59:54;8.48;;;4.53;;
11319;SDS011;5715;48.234;14.320;2023-08-21T08:02:42;6.90;;;5.40;;
11319;SDS011;5715;48.234;14.320;2023-08-21T08:05:30;5.28;;;4.15;;
11319;SDS011;5715;48.234;14.320;2023-08-21T08:08:20;4.75;;;4.25;;
11319;SDS011;5715;48.234;14.320;2023-08-21T08:11:08;5.72;;;4.78;;
11319;SDS011;5715;48.234;14.320;2023-08-21T08:13:56;8.82;;;4.43;;
11319;SDS011;5715;48.234;14.320;2023-08-21T08:16:43;12.30;;;4.85;;
11319;SDS011;5715;48.234;14.320;2023-08-21T08:19:31;4.53;;;4.07;;
11319;SDS011;5715;48.234;14.320;2023-08-21T08:22:18;6.10;;;4.95;;
11319;SDS011;5715;48.234;14.320;2023-08-21T08:25:06;5.72;;;4.85;;
11319;SDS011;5715;48.234;14.320;2023-08-21T08:27:54;5.35;;;4.47;;
11319;SDS011;5715;48.234;14.320;2023-08-21T08:30:41;8.73;;;4.35;;
11319;SDS011;5715;48.234;14.320;2023-08-21T08:33:29;7.88;;;5.32;;
11319;SDS011;5715;48.234;14.320;2023-08-21T08:36:16;5.60;;;4.85;;
11319;SDS011;5715;48.234;14.320;2023-08-21T08:39:04;8.60;;;5.15;;
11319;SDS011;5715;48.234;14.320;2023-08-21T08:41:56;11.30;;;5.43;;
11319;SDS011;5715;48.234;14.320;2023-08-21T08:44:52;8.23;;;5.57;;
11319;SDS011;5715;48.234;14.320;2023-08-21T08:47:43;8.07;;;4.88;;
11319;SDS011;5715;48.234;14.320;2023-08-21T08:50:34;5.80;;;5.20;;
11319;SDS011;5715;48.234;14.320;2023-08-21T08:53:21;7.15;;;5.75;;
11319;SDS011;5715;48.234;14.320;2023-08-21T08:56:11;6.95;;;6.25;;
11319;SDS011;5715;48.234;14.320;2023-08-21T08:58:58;6.50;;;5.40;;
11319;SDS011;5715;48.234;14.320;2023-08-21T09:01:46;6.13;;;5.53;;
11319;SDS011;5715;48.234;14.320;2023-08-21T09:04:34;10.60;;;5.53;;
11319;SDS011;5715;48.234;14.320;2023-08-21T09:07:21;6.90;;;5.35;;
11319;SDS011;5715;48.234;14.320;2023-08-21T09:10:12;11.85;;;5.60;;
11319;SDS011;5715;48.234;14.320;2023-08-21T09:13:17;8.10;;;5.75;;
11319;SDS011;5715;48.234;14.320;2023-08-21T09:16:06;6.38;;;4.90;;
11319;SDS011;5715;48.234;14.320;2023-08-21T09:18:55;7.88;;;5.47;;
11319;SDS011;5715;48.234;14.320;2023-08-21T09:21:43;7.25;;;6.53;;
11319;SDS011;5715;48.234;14.320;2023-08-21T09:24:31;6.80;;;6.03;;
11319;SDS011;5715;48.234;14.320;2023-08-21T09:27:18;7.20;;;5.65;;
11319;SDS011;5715;48.234;14.320;2023-08-21T09:30:08;12.60;;;6.20;;
11319;SDS011;5715;48.234;14.320;2023-08-21T09:33:01;6.55;;;6.05;;
11319;SDS011;5715;48.234;14.320;2023-08-21T09:35:52;7.78;;;6.22;;
11319;SDS011;5715;48.234;14.320;2023-08-21T09:38:45;8.85;;;6.38;;
11319;SDS011;5715;48.234;14.320;2023-08-21T09:41:33;13.43;;;6.93;;
11319;SDS011;5715;48.234;14.320;2023-08-21T09:44:20;7.53;;;6.82;;
11319;SDS011;5715;48.234;14.320;2023-08-21T09:47:08;7.93;;;7.32;;
11319;SDS011;5715;48.234;14.320;2023-08-21T09:49:58;11.13;;;7.22;;
11319;SDS011;5715;48.234;14.320;2023-08-21T09:52:47;8.00;;;7.35;;
11319;SDS011;5715;48.234;14.320;2023-08-21T09:55:36;10.98;;;7.63;;
11319;SDS011;5715;48.234;14.320;2023-08-21T09:58:27;7.93;;;7.22;;
11319;SDS011;5715;48.234;14.320;2023-08-21T10:01:14;8.27;;;7.60;;
11319;SDS011;5715;48.234;14.320;2023-08-21T10:04:07;8.38;;;7.57;;
11319;SDS011;5715;48.234;14.320;2023-08-21T10:06:58;7.43;;;6.78;;
11319;SDS011;5715;48.234;14.320;2023-08-21T10:09:50;9.63;;;6.65;;
11319;SDS011;5715;48.234;14.320;2023-08-21T10:12:38;7.25;;;6.50;;
11319;SDS011;5715;48.234;14.320;2023-08-21T10:15:28;6.40;;;5.90;;
11319;SDS011;5715;48.234;14.320;2023-08-21T10:18:24;7.82;;;7.20;;
11319;SDS011;5715;48.234;14.320;2023-08-21T10:21:20;12.18;;;6.63;;
11319;SDS011;5715;48.234;14.320;2023-08-21T10:24:16;6.80;;;6.20;;
11319;SDS011;5715;48.234;14.320;2023-08-21T10:27:15;8.07;;;7.28;;
11319;SDS011;5715;48.234;14.320;2023-08-21T10:30:26;14.18;;;8.02;;
11319;SDS011;5715;48.234;14.320;2023-08-21T10:33:16;7.10;;;6.40;;
11319;SDS011;5715;48.234;14.320;2023-08-21T10:36:06;7.50;;;6.13;;
11319;SDS011;5715;48.234;14.320;2023-08-21T10:39:00;7.18;;;6.55;;
11319;SDS011;5715;48.234;14.320;2023-08-21T10:41:57;7.85;;;7.15;;
11319;SDS011;5715;48.234;14.320;2023-08-21T10:44:55;7.68;;;7.07;;
11319;SDS011;5715;48.234;14.320;2023-08-21T10:47:43;8.48;;;7.00;;
11319;SDS011;5715;48.234;14.320;2023-08-21T10:50:34;8.13;;;7.53;;
11319;SDS011;5715;48.234;14.320;2023-08-21T10:53:23;8.85;;;7.20;;
11319;SDS011;5715;48.234;14.320;2023-08-21T10:56:11;8.50;;;7.78;;
11319;SDS011;5715;48.234;14.320;2023-08-21T10:58:58;8.63;;;7.93;;
11319;SDS011;5715;48.234;14.320;2023-08-21T11:01:46;7.82;;;7.25;;
11319;SDS011;5715;48.234;14.320;2023-08-21T11:04:40;7.57;;;6.97;;
11319;SDS011;5715;48.234;14.320;2023-08-21T11:07:28;8.57;;;7.88;;
11319;SDS011;5715;48.234;14.320;2023-08-21T11:10:27;8.63;;;7.93;;
11319;SDS011;5715;48.234;14.320;2023-08-21T11:13:17;8.35;;;7.47;;
11319;SDS011;5715;48.234;14.320;2023-08-21T11:16:05;9.35;;;8.43;;
11319;SDS011;5715;48.234;14.320;2023-08-21T11:18:53;9.68;;;8.88;;
11319;SDS011;5715;48.234;14.320;2023-08-21T11:21:40;13.00;;;7.78;;
11319;SDS011;5715;48.234;14.320;2023-08-21T11:24:30;10.52;;;9.32;;
11319;SDS011;5715;48.234;14.320;2023-08-21T11:27:24;8.65;;;7.93;;
11319;SDS011;5715;48.234;14.320;2023-08-21T11:30:11;9.38;;;8.55;;
11319;SDS011;5715;48.234;14.320;2023-08-21T11:33:09;9.80;;;8.98;;
11319;SDS011;5715;48.234;14.320;2023-08-21T11:35:59;9.05;;;8.45;;
11319;SDS011;5715;48.234;14.320;2023-08-21T11:39:00;9.60;;;8.65;;
11319;SDS011;5715;48.234;14.320;2023-08-21T11:41:53;8.32;;;7.55;;
11319;SDS011;5715;48.234;14.320;2023-08-21T11:44:45;7.68;;;7.05;;
11319;SDS011;5715;48.234;14.320;2023-08-21T11:47:34;8.40;;;7.78;;
11319;SDS011;5715;48.234;14.320;2023-08-21T11:50:23;6.78;;;6.28;;
11319;SDS011;5715;48.234;14.320;2023-08-21T11:53:11;10.18;;;6.82;;
11319;SDS011;5715;48.234;14.320;2023-08-21T11:55:59;9.27;;;8.43;;
11319;SDS011;5715;48.234;14.320;2023-08-21T11:58:47;7.05;;;6.40;;
11319;SDS011;5715;48.234;14.320;2023-08-21T12:01:36;7.90;;;6.63;;
11319;SDS011;5715;48.234;14.320;2023-08-21T12:04:26;7.40;;;6.15;;
11319;SDS011;5715;48.234;14.320;2023-08-21T12:07:14;6.78;;;6.28;;
11319;SDS011;5715;48.234;14.320;2023-08-21T12:10:01;6.10;;;5.60;;
11319;SDS011;5715;48.234;14.320;2023-08-21T12:12:50;7.57;;;6.47;;
11319;SDS011;5715;48.234;14.320;2023-08-21T12:15:37;6.40;;;5.90;;
11319;SDS011;5715;48.234;14.320;2023-08-21T12:18:25;6.03;;;5.53;;
11319;SDS011;5715;48.234;14.320;2023-08-21T12:21:12;7.38;;;5.43;;
11319;SDS011;5715;48.234;14.320;2023-08-21T12:24:00;9.82;;;6.53;;
11319;SDS011;5715;48.234;14.320;2023-08-21T12:26:47;8.35;;;7.57;;
11319;SDS011;5715;48.234;14.320;2023-08-21T12:29:37;6.82;;;6.20;;
11319;SDS011;5715;48.234;14.320;2023-08-21T12:32:24;6.55;;;6.05;;
11319;SDS011;5715;48.234;14.320;2023-08-21T12:35:12;7.50;;;6.40;;
11319;SDS011;5715;48.234;14.320;2023-08-21T12:38:00;6.63;;;6.13;;
11319;SDS011;5715;48.234;14.320;2023-08-21T12:40:52;5.95;;;5.55;;
11319;SDS011;5715;48.234;14.320;2023-08-21T12:43:39;6.45;;;5.85;;
11319;SDS011;5715;48.234;14.320;2023-08-21T12:46:27;9.07;;;7.45;;
11319;SDS011;5715;48.234;14.320;2023-08-21T12:49:16;6.28;;;5.78;;
11319;SDS011;5715;48.234;14.320;2023-08-21T12:52:03;7.00;;;6.35;;
11319;SDS011;5715;48.234;14.320;2023-08-21T12:54:56;7.22;;;6.63;;
11319;SDS011;5715;48.234;14.320;2023-08-21T12:57:44;7.95;;;7.28;;
11319;SDS011;5715;48.234;14.320;2023-08-21T13:00:31;11.98;;;6.40;;
11319;SDS011;5715;48.234;14.320;2023-08-21T13:03:19;7.25;;;6.55;;
11319;SDS011;5715;48.234;14.320;2023-08-21T13:06:07;7.30;;;6.43;;
11319;SDS011;5715;48.234;14.320;2023-08-21T13:08:54;6.72;;;6.22;;
11319;SDS011;5715;48.234;14.320;2023-08-21T13:11:42;7.97;;;7.40;;
11319;SDS011;5715;48.234;14.320;2023-08-21T13:14:30;10.07;;;9.38;;
11319;SDS011;5715;48.234;14.320;2023-08-21T13:17:18;9.85;;;9.07;;
11319;SDS011;5715;48.234;14.320;2023-08-21T13:20:06;6.43;;;5.95;;
11319;SDS011;5715;48.234;14.320;2023-08-21T13:22:55;5.65;;;5.25;;
11319;SDS011;5715;48.234;14.320;2023-08-21T13:25:43;6.85;;;6.35;;
11319;SDS011;5715;48.234;14.320;2023-08-21T13:28:31;8.48;;;7.07;;
11319;SDS011;5715;48.234;14.320;2023-08-21T13:31:19;7.85;;;7.10;;
11319;SDS011;5715;48.234;14.320;2023-08-21T13:34:06;6.97;;;6.47;;
11319;SDS011;5715;48.234;14.320;2023-08-21T13:36:54;6.10;;;5.57;;
11319;SDS011;5715;48.234;14.320;2023-08-21T13:39:41;7.43;;;6.75;;
11319;SDS011;5715;48.234;14.320;2023-08-21T13:42:29;7.03;;;6.38;;
11319;SDS011;5715;48.234;14.320;2023-08-21T13:45:19;8.07;;;7.47;;
11319;SDS011;5715;48.234;14.320;2023-08-21T13:48:07;7.47;;;6.88;;
11319;SDS011;5715;48.234;14.320;2023-08-21T13:50:54;10.55;;;5.65;;
11319;SDS011;5715;48.234;14.320;2023-08-21T13:53:42;5.72;;;5.32;;
11319;SDS011;5715;48.234;14.320;2023-08-21T13:56:30;7.03;;;5.95;;
11319;SDS011;5715;48.234;14.320;2023-08-21T13:59:17;11.75;;;5.93;;
11319;SDS011;5715;48.234;14.320;2023-08-21T14:02:04;6.97;;;6.53;;
11319;SDS011;5715;48.234;14.320;2023-08-21T14:04:52;6.40;;;5.90;;
11319;SDS011;5715;48.234;14.320;2023-08-21T14:07:40;6.43;;;5.90;;
11319;SDS011;5715;48.234;14.320;2023-08-21T14:10:28;5.63;;;5.22;;
11319;SDS011;5715;48.234;14.320;2023-08-21T14:13:17;7.25;;;6.60;;
11319;SDS011;5715;48.234;14.320;2023-08-21T14:16:04;5.78;;;5.38;;
11319;SDS011;5715;48.234;14.320;2023-08-21T14:18:52;7.28;;;6.78;;
11319;SDS011;5715;48.234;14.320;2023-08-21T14:21:39;6.47;;;5.78;;
11319;SDS011;5715;48.234;14.320;2023-08-21T14:24:27;5.13;;;4.82;;
11319;SDS011;5715;48.234;14.320;2023-08-21T14:27:15;9.40;;;4.80;;
11319;SDS011;5715;48.234;14.320;2023-08-21T14:30:03;7.97;;;7.18;;
11319;SDS011;5715;48.234;14.320;2023-08-21T14:32:53;5.30;;;4.93;;
11319;SDS011;5715;48.234;14.320;2023-08-21T14:35:40;6.32;;;5.82;;
11319;SDS011;5715;48.234;14.320;2023-08-21T14:38:28;6.78;;;6.25;;
11319;SDS011;5715;48.234;14.320;2023-08-21T14:41:16;5.05;;;4.75;;
11319;SDS011;5715;48.234;14.320;2023-08-21T14:44:05;5.85;;;5.45;;
11319;SDS011;5715;48.234;14.320;2023-08-21T14:46:53;5.68;;;5.28;;
11319;SDS011;5715;48.234;14.320;2023-08-21T14:49:47;6.20;;;5.85;;
11319;SDS011;5715;48.234;14.320;2023-08-21T14:52:35;6.40;;;6.00;;
11319;SDS011;5715;48.234;14.320;2023-08-21T14:55:23;6.80;;;6.20;;
11319;SDS011;5715;48.234;14.320;2023-08-21T14:58:10;5.47;;;5.07;;
11319;SDS011;5715;48.234;14.320;2023-08-21T15:00:58;6.22;;;5.82;;
11319;SDS011;5715;48.234;14.320;2023-08-21T15:03:46;6.45;;;5.35;;
11319;SDS011;5715;48.234;14.320;2023-08-21T15:06:34;7.28;;;5.30;;
11319;SDS011;5715;48.234;14.320;2023-08-21T15:09:24;8.85;;;5.72;;
11319;SDS011;5715;48.234;14.320;2023-08-21T15:12:11;4.80;;;4.50;;
11319;SDS011;5715;48.234;14.320;2023-08-21T15:14:59;6.55;;;5.22;;
11319;SDS011;5715;48.234;14.320;2023-08-21T15:17:47;5.15;;;4.85;;
11319;SDS011;5715;48.234;14.320;2023-08-21T15:20:34;5.90;;;5.50;;
11319;SDS011;5715;48.234;14.320;2023-08-21T15:23:22;5.95;;;5.45;;
11319;SDS011;5715;48.234;14.320;2023-08-21T15:26:09;5.07;;;4.60;;
11319;SDS011;5715;48.234;14.320;2023-08-21T15:28:57;6.93;;;5.88;;
11319;SDS011;5715;48.234;14.320;2023-08-21T15:31:44;5.75;;;5.25;;
11319;SDS011;5715;48.234;14.320;2023-08-21T15:34:32;6.72;;;6.22;;
11319;SDS011;5715;48.234;14.320;2023-08-21T15:37:20;5.80;;;5.47;;
11319;SDS011;5715;48.234;14.320;2023-08-21T15:40:07;5.53;;;5.13;;
11319;SDS011;5715;48.234;14.320;2023-08-21T15:42:55;6.13;;;5.50;;
11319;SDS011;5715;48.234;14.320;2023-08-21T15:45:48;4.93;;;4.55;;
11319;SDS011;5715;48.234;14.320;2023-08-21T15:48:35;5.30;;;4.90;;
11319;SDS011;5715;48.234;14.320;2023-08-21T15:51:23;6.47;;;6.07;;
11319;SDS011;5715;48.234;14.320;2023-08-21T15:54:11;6.25;;;5.88;;
11319;SDS011;5715;48.234;14.320;2023-08-21T15:56:59;7.25;;;6.55;;
11319;SDS011;5715;48.234;14.320;2023-08-21T15:59:51;5.28;;;4.68;;
11319;SDS011;5715;48.234;14.320;2023-08-21T16:02:38;5.35;;;4.97;;
11319;SDS011;5715;48.234;14.320;2023-08-21T16:05:27;5.78;;;5.38;;
11319;SDS011;5715;48.234;14.320;2023-08-21T16:08:15;5.38;;;4.97;;
11319;SDS011;5715;48.234;14.320;2023-08-21T16:11:03;5.47;;;5.07;;
11319;SDS011;5715;48.234;14.320;2023-08-21T16:13:51;5.75;;;5.38;;
11319;SDS011;5715;48.234;14.320;2023-08-21T16:16:38;7.25;;;4.90;;
11319;SDS011;5715;48.234;14.320;2023-08-21T16:19:30;7.95;;;5.88;;
11319;SDS011;5715;48.234;14.320;2023-08-21T16:22:17;6.03;;;5.63;;
11319;SDS011;5715;48.234;14.320;2023-08-21T16:25:06;5.68;;;5.18;;
11319;SDS011;5715;48.234;14.320;2023-08-21T16:27:54;5.13;;;4.78;;
11319;SDS011;5715;48.234;14.320;2023-08-21T16:30:42;8.10;;;5.53;;
11319;SDS011;5715;48.234;14.320;2023-08-21T16:33:29;5.43;;;5.03;;
11319;SDS011;5715;48.234;14.320;2023-08-21T16:36:17;6.35;;;5.85;;
11319;SDS011;5715;48.234;14.320;2023-08-21T16:39:04;5.88;;;5.38;;
11319;SDS011;5715;48.234;14.320;2023-08-21T16:41:52;11.07;;;6.25;;
11319;SDS011;5715;48.234;14.320;2023-08-21T16:44:39;6.00;;;5.55;;
11319;SDS011;5715;48.234;14.320;2023-08-21T16:47:27;6.13;;;5.65;;
11319;SDS011;5715;48.234;14.320;2023-08-21T16:50:15;6.20;;;5.53;;
11319;SDS011;5715;48.234;14.320;2023-08-21T16:53:04;8.30;;;5.78;;
11319;SDS011;5715;48.234;14.320;2023-08-21T16:56:08;5.38;;;4.85;;
11319;SDS011;5715;48.234;14.320;2023-08-21T16:58:55;6.38;;;5.97;;
11319;SDS011;5715;48.234;14.320;2023-08-21T17:01:43;5.43;;;5.07;;
11319;SDS011;5715;48.234;14.320;2023-08-21T17:04:32;9.90;;;6.53;;